sensor_id;sensor_type;location;lat;lon;timestamp;temperature;humidity
16736;DHT22;17990;49.548;9.730;2022-11-20T00:01:30;2.70;99.90
16736;DHT22;17990;49.548;9.730;2022-11-20T00:03:58;2.70;99.90
16736;DHT22;17990;49.548;9.730;2022-11-20T00:06:28;2.70;99.90
16736;DHT22;17990;49.548;9.730;2022-11-20T00:08:56;2.70;99.90
16736;DHT22;17990;49.548;9.730;2022-11-20T00:11:26;2.60;99.90
16736;DHT22;17990;49.548;9.730;2022-11-20T00:13:55;2.60;99.90
16736;DHT22;17990;49.548;9.730;2022-11-20T00:16:24;2.70;99.90
16736;DHT22;17990;49.548;9.730;2022-11-20T00:18:52;2.60;99.90
16736;DHT22;17990;49.548;9.730;2022-11-20T00:21:21;2.50;99.90
16736;DHT22;17990;49.548;9.730;2022-11-20T00:23:53;2.50;99.90
16736;DHT22;17990;49.548;9.730;2022-11-20T00:26:22;2.50;99.90
16736;DHT22;17990;49.548;9.730;2022-11-20T00:28:51;2.50;99.90
16736;DHT22;17990;49.548;9.730;2022-11-20T00:31:19;2.40;99.90
16736;DHT22;17990;49.548;9.730;2022-11-20T00:33:46;2.20;99.90
16736;DHT22;17990;49.548;9.730;2022-11-20T00:36:15;2.30;99.90
16736;DHT22;17990;49.548;9.730;2022-11-20T00:38:43;2.40;99.90
16736;DHT22;17990;49.548;9.730;2022-11-20T00:41:13;2.40;99.90
16736;DHT22;17990;49.548;9.730;2022-11-20T00:43:41;2.50;99.90
16736;DHT22;17990;49.548;9.730;2022-11-20T00:46:10;2.50;99.90
16736;DHT22;17990;49.548;9.730;2022-11-20T00:48:39;2.60;99.90
16736;DHT22;17990;49.548;9.730;2022-11-20T00:51:06;2.50;99.90
16736;DHT22;17990;49.548;9.730;2022-11-20T00:53:33;2.60;99.90
16736;DHT22;17990;49.548;9.730;2022-11-20T00:56:02;2.60;99.90
16736;DHT22;17990;49.548;9.730;2022-11-20T00:58:33;2.60;99.90
16736;DHT22;17990;49.548;9.730;2022-11-20T01:01:01;2.60;99.90
16736;DHT22;17990;49.548;9.730;2022-11-20T01:03:31;2.60;99.90
16736;DHT22;17990;49.548;9.730;2022-11-20T01:06:00;2.60;99.90
16736;DHT22;17990;49.548;9.730;2022-11-20T01:08:29;2.70;99.90
16736;DHT22;17990;49.548;9.730;2022-11-20T01:11:01;2.70;99.90
16736;DHT22;17990;49.548;9.730;2022-11-20T01:13:31;2.70;99.90
16736;DHT22;17990;49.548;9.730;2022-11-20T01:16:05;2.70;99.90
16736;DHT22;17990;49.548;9.730;2022-11-20T01:18:34;2.60;99.90
16736;DHT22;17990;49.548;9.730;2022-11-20T01:21:03;2.50;99.90
16736;DHT22;17990;49.548;9.730;2022-11-20T01:23:32;2.40;99.90
16736;DHT22;17990;49.548;9.730;2022-11-20T01:26:01;2.50;99.90
16736;DHT22;17990;49.548;9.730;2022-11-20T01:28:31;2.60;99.90
16736;DHT22;17990;49.548;9.730;2022-11-20T01:30:58;2.70;99.90
16736;DHT22;17990;49.548;9.730;2022-11-20T01:33:25;2.70;99.90
16736;DHT22;17990;49.548;9.730;2022-11-20T01:35:53;2.70;99.90
16736;DHT22;17990;49.548;9.730;2022-11-20T01:38:20;2.70;99.90
16736;DHT22;17990;49.548;9.730;2022-11-20T01:40:54;2.80;99.90
16736;DHT22;17990;49.548;9.730;2022-11-20T01:43:22;2.80;99.90
16736;DHT22;17990;49.548;9.730;2022-11-20T01:46:03;2.80;99.90
16736;DHT22;17990;49.548;9.730;2022-11-20T01:48:36;2.80;99.90
16736;DHT22;17990;49.548;9.730;2022-11-20T01:51:10;2.80;99.90
16736;DHT22;17990;49.548;9.730;2022-11-20T01:53:41;2.90;99.90
16736;DHT22;17990;49.548;9.730;2022-11-20T01:56:10;2.90;99.90
16736;DHT22;17990;49.548;9.730;2022-11-20T01:58:42;2.90;99.90
16736;DHT22;17990;49.548;9.730;2022-11-20T02:01:12;2.90;99.90
16736;DHT22;17990;49.548;9.730;2022-11-20T02:03:40;2.90;99.90
16736;DHT22;17990;49.548;9.730;2022-11-20T02:06:13;2.90;99.90
16736;DHT22;17990;49.548;9.730;2022-11-20T02:08:43;2.90;99.90
16736;DHT22;17990;49.548;9.730;2022-11-20T02:11:10;2.90;99.90
16736;DHT22;17990;49.548;9.730;2022-11-20T02:13:38;2.90;99.90
16736;DHT22;17990;49.548;9.730;2022-11-20T02:16:18;2.90;99.90
16736;DHT22;17990;49.548;9.730;2022-11-20T02:18:48;2.80;99.90
16736;DHT22;17990;49.548;9.730;2022-11-20T02:21:23;2.70;99.90
16736;DHT22;17990;49.548;9.730;2022-11-20T02:24:09;2.80;99.90
16736;DHT22;17990;49.548;9.730;2022-11-20T02:26:44;2.80;99.90
16736;DHT22;17990;49.548;9.730;2022-11-20T02:29:16;2.70;99.90
16736;DHT22;17990;49.548;9.730;2022-11-20T02:31:45;2.70;99.90
16736;DHT22;17990;49.548;9.730;2022-11-20T02:34:12;2.70;99.90
16736;DHT22;17990;49.548;9.730;2022-11-20T02:36:40;2.70;99.90
16736;DHT22;17990;49.548;9.730;2022-11-20T02:39:10;2.80;99.90
16736;DHT22;17990;49.548;9.730;2022-11-20T02:41:38;2.80;99.90
16736;DHT22;17990;49.548;9.730;2022-11-20T02:44:05;2.80;99.90
16736;DHT22;17990;49.548;9.730;2022-11-20T02:46:33;2.80;99.90
16736;DHT22;17990;49.548;9.730;2022-11-20T02:49:01;2.70;99.90
16736;DHT22;17990;49.548;9.730;2022-11-20T02:51:29;2.70;99.90
16736;DHT22;17990;49.548;9.730;2022-11-20T02:53:56;2.70;99.90
16736;DHT22;17990;49.548;9.730;2022-11-20T02:56:25;2.70;99.90
16736;DHT22;17990;49.548;9.730;2022-11-20T02:58:53;2.70;99.90
16736;DHT22;17990;49.548;9.730;2022-11-20T03:01:19;2.80;99.90
16736;DHT22;17990;49.548;9.730;2022-11-20T03:03:47;2.80;99.90
16736;DHT22;17990;49.548;9.730;2022-11-20T03:06:15;2.80;99.90
16736;DHT22;17990;49.548;9.730;2022-11-20T03:08:42;2.80;99.90
16736;DHT22;17990;49.548;9.730;2022-11-20T03:11:09;2.80;99.90
16736;DHT22;17990;49.548;9.730;2022-11-20T03:13:37;2.80;99.90
16736;DHT22;17990;49.548;9.730;2022-11-20T03:16:09;2.90;99.90
16736;DHT22;17990;49.548;9.730;2022-11-20T03:18:37;2.80;99.90
16736;DHT22;17990;49.548;9.730;2022-11-20T03:21:05;2.70;99.90
16736;DHT22;17990;49.548;9.730;2022-11-20T03:23:33;2.70;99.90
16736;DHT22;17990;49.548;9.730;2022-11-20T03:26:12;2.80;99.90
16736;DHT22;17990;49.548;9.730;2022-11-20T03:28:42;2.90;99.90
16736;DHT22;17990;49.548;9.730;2022-11-20T03:31:11;2.90;99.90
16736;DHT22;17990;49.548;9.730;2022-11-20T03:33:40;2.90;99.90
16736;DHT22;17990;49.548;9.730;2022-11-20T03:36:10;2.90;99.90
16736;DHT22;17990;49.548;9.730;2022-11-20T03:38:38;2.90;99.90
16736;DHT22;17990;49.548;9.730;2022-11-20T03:41:07;2.80;99.90
16736;DHT22;17990;49.548;9.730;2022-11-20T03:43:35;2.90;99.90
16736;DHT22;17990;49.548;9.730;2022-11-20T03:46:04;2.90;99.90
16736;DHT22;17990;49.548;9.730;2022-11-20T03:48:32;2.90;99.90
16736;DHT22;17990;49.548;9.730;2022-11-20T03:51:10;2.90;99.90
16736;DHT22;17990;49.548;9.730;2022-11-20T03:53:38;2.90;99.90
16736;DHT22;17990;49.548;9.730;2022-11-20T03:56:05;2.90;99.90
16736;DHT22;17990;49.548;9.730;2022-11-20T03:58:33;2.80;99.90
16736;DHT22;17990;49.548;9.730;2022-11-20T04:01:07;2.80;99.90
16736;DHT22;17990;49.548;9.730;2022-11-20T04:03:35;2.70;99.90
16736;DHT22;17990;49.548;9.730;2022-11-20T04:06:04;2.60;99.90
16736;DHT22;17990;49.548;9.730;2022-11-20T04:08:32;2.70;99.90
16736;DHT22;17990;49.548;9.730;2022-11-20T04:11:09;2.80;99.90
16736;DHT22;17990;49.548;9.730;2022-11-20T04:13:36;2.80;99.90
16736;DHT22;17990;49.548;9.730;2022-11-20T04:16:04;2.80;99.90
16736;DHT22;17990;49.548;9.730;2022-11-20T04:18:33;2.70;99.90
16736;DHT22;17990;49.548;9.730;2022-11-20T04:21:00;2.70;99.90
16736;DHT22;17990;49.548;9.730;2022-11-20T04:23:27;2.70;99.90
16736;DHT22;17990;49.548;9.730;2022-11-20T04:26:00;2.80;99.90
16736;DHT22;17990;49.548;9.730;2022-11-20T04:28:27;2.80;99.90
16736;DHT22;17990;49.548;9.730;2022-11-20T04:30:54;2.80;99.90
16736;DHT22;17990;49.548;9.730;2022-11-20T04:33:28;2.80;99.90
16736;DHT22;17990;49.548;9.730;2022-11-20T04:36:00;2.90;99.90
16736;DHT22;17990;49.548;9.730;2022-11-20T04:38:28;2.90;99.90
16736;DHT22;17990;49.548;9.730;2022-11-20T04:40:58;2.90;99.90
16736;DHT22;17990;49.548;9.730;2022-11-20T04:43:25;2.80;99.90
16736;DHT22;17990;49.548;9.730;2022-11-20T04:45:53;2.90;99.90
16736;DHT22;17990;49.548;9.730;2022-11-20T04:48:20;3.00;99.90
16736;DHT22;17990;49.548;9.730;2022-11-20T04:50:47;3.00;99.90
16736;DHT22;17990;49.548;9.730;2022-11-20T04:53:16;3.10;99.90
16736;DHT22;17990;49.548;9.730;2022-11-20T04:55:43;3.20;99.90
16736;DHT22;17990;49.548;9.730;2022-11-20T04:58:10;3.20;99.90
16736;DHT22;17990;49.548;9.730;2022-11-20T05:00:37;3.10;99.90
16736;DHT22;17990;49.548;9.730;2022-11-20T05:03:04;2.90;99.90
16736;DHT22;17990;49.548;9.730;2022-11-20T05:05:31;3.00;99.90
16736;DHT22;17990;49.548;9.730;2022-11-20T05:07:58;3.10;99.90
16736;DHT22;17990;49.548;9.730;2022-11-20T05:10:27;3.00;99.90
16736;DHT22;17990;49.548;9.730;2022-11-20T05:12:54;2.80;99.90
16736;DHT22;17990;49.548;9.730;2022-11-20T05:15:21;2.70;99.90
16736;DHT22;17990;49.548;9.730;2022-11-20T05:17:48;2.60;99.90
16736;DHT22;17990;49.548;9.730;2022-11-20T05:20:15;2.60;99.90
16736;DHT22;17990;49.548;9.730;2022-11-20T05:22:43;2.50;99.90
16736;DHT22;17990;49.548;9.730;2022-11-20T05:25:10;2.50;99.90
16736;DHT22;17990;49.548;9.730;2022-11-20T05:27:39;2.60;99.90
16736;DHT22;17990;49.548;9.730;2022-11-20T05:30:07;2.70;99.90
16736;DHT22;17990;49.548;9.730;2022-11-20T05:32:35;2.80;99.90
16736;DHT22;17990;49.548;9.730;2022-11-20T05:35:02;2.80;99.90
16736;DHT22;17990;49.548;9.730;2022-11-20T05:37:29;2.90;99.90
16736;DHT22;17990;49.548;9.730;2022-11-20T05:39:56;2.90;99.90
16736;DHT22;17990;49.548;9.730;2022-11-20T05:42:23;2.90;99.90
16736;DHT22;17990;49.548;9.730;2022-11-20T05:45:02;3.00;99.90
16736;DHT22;17990;49.548;9.730;2022-11-20T05:47:32;3.10;99.90
16736;DHT22;17990;49.548;9.730;2022-11-20T05:50:00;3.10;99.90
16736;DHT22;17990;49.548;9.730;2022-11-20T05:52:28;3.20;99.90
16736;DHT22;17990;49.548;9.730;2022-11-20T05:54:56;3.20;99.90
16736;DHT22;17990;49.548;9.730;2022-11-20T05:57:23;3.20;99.90
16736;DHT22;17990;49.548;9.730;2022-11-20T05:59:50;3.30;99.90
16736;DHT22;17990;49.548;9.730;2022-11-20T06:02:18;3.30;99.90
16736;DHT22;17990;49.548;9.730;2022-11-20T06:04:45;3.30;99.90
16736;DHT22;17990;49.548;9.730;2022-11-20T06:07:12;3.30;99.90
16736;DHT22;17990;49.548;9.730;2022-11-20T06:09:39;3.30;99.90
16736;DHT22;17990;49.548;9.730;2022-11-20T06:12:06;3.30;99.90
16736;DHT22;17990;49.548;9.730;2022-11-20T06:14:33;3.40;99.90
16736;DHT22;17990;49.548;9.730;2022-11-20T06:17:00;3.40;99.90
16736;DHT22;17990;49.548;9.730;2022-11-20T06:19:28;3.40;99.90
16736;DHT22;17990;49.548;9.730;2022-11-20T06:21:55;3.40;99.90
16736;DHT22;17990;49.548;9.730;2022-11-20T06:24:22;3.50;99.90
16736;DHT22;17990;49.548;9.730;2022-11-20T06:26:50;3.50;99.90
16736;DHT22;17990;49.548;9.730;2022-11-20T06:29:17;3.40;99.90
16736;DHT22;17990;49.548;9.730;2022-11-20T06:31:44;3.50;99.90
16736;DHT22;17990;49.548;9.730;2022-11-20T06:34:11;3.50;99.90
16736;DHT22;17990;49.548;9.730;2022-11-20T06:36:39;3.50;99.90
16736;DHT22;17990;49.548;9.730;2022-11-20T06:39:06;3.50;99.90
16736;DHT22;17990;49.548;9.730;2022-11-20T06:41:33;3.40;99.90
16736;DHT22;17990;49.548;9.730;2022-11-20T06:44:00;3.40;99.90
16736;DHT22;17990;49.548;9.730;2022-11-20T06:46:27;3.40;99.90
16736;DHT22;17990;49.548;9.730;2022-11-20T06:48:54;3.40;99.90
16736;DHT22;17990;49.548;9.730;2022-11-20T06:51:20;3.40;99.90
16736;DHT22;17990;49.548;9.730;2022-11-20T06:53:49;3.30;99.90
16736;DHT22;17990;49.548;9.730;2022-11-20T06:56:16;3.20;99.90
16736;DHT22;17990;49.548;9.730;2022-11-20T06:58:43;3.20;99.90
16736;DHT22;17990;49.548;9.730;2022-11-20T07:01:11;3.20;99.90
16736;DHT22;17990;49.548;9.730;2022-11-20T07:03:40;3.10;99.90
16736;DHT22;17990;49.548;9.730;2022-11-20T07:06:08;3.10;99.90
16736;DHT22;17990;49.548;9.730;2022-11-20T07:08:35;3.20;99.90
16736;DHT22;17990;49.548;9.730;2022-11-20T07:11:05;3.30;99.90
16736;DHT22;17990;49.548;9.730;2022-11-20T07:13:33;3.40;99.90
16736;DHT22;17990;49.548;9.730;2022-11-20T07:16:01;3.50;99.90
16736;DHT22;17990;49.548;9.730;2022-11-20T07:18:29;3.70;99.90
16736;DHT22;17990;49.548;9.730;2022-11-20T07:20:59;3.70;99.90
16736;DHT22;17990;49.548;9.730;2022-11-20T07:23:26;3.80;99.90
16736;DHT22;17990;49.548;9.730;2022-11-20T07:25:53;3.80;99.90
16736;DHT22;17990;49.548;9.730;2022-11-20T07:28:21;3.80;99.90
16736;DHT22;17990;49.548;9.730;2022-11-20T07:30:52;3.80;99.90
16736;DHT22;17990;49.548;9.730;2022-11-20T07:33:19;3.80;99.90
16736;DHT22;17990;49.548;9.730;2022-11-20T07:35:46;3.90;99.90
16736;DHT22;17990;49.548;9.730;2022-11-20T07:38:13;3.90;99.90
16736;DHT22;17990;49.548;9.730;2022-11-20T07:40:40;3.80;99.90
16736;DHT22;17990;49.548;9.730;2022-11-20T07:43:07;3.60;99.90
16736;DHT22;17990;49.548;9.730;2022-11-20T07:45:35;3.60;99.90
16736;DHT22;17990;49.548;9.730;2022-11-20T07:48:03;3.70;99.90
16736;DHT22;17990;49.548;9.730;2022-11-20T07:50:30;3.80;99.90
16736;DHT22;17990;49.548;9.730;2022-11-20T07:53:01;3.80;99.90
16736;DHT22;17990;49.548;9.730;2022-11-20T07:55:29;3.90;99.90
16736;DHT22;17990;49.548;9.730;2022-11-20T07:57:56;3.90;99.90
16736;DHT22;17990;49.548;9.730;2022-11-20T08:00:24;3.90;99.90
16736;DHT22;17990;49.548;9.730;2022-11-20T08:02:53;3.90;99.90
16736;DHT22;17990;49.548;9.730;2022-11-20T08:05:20;4.00;99.90
16736;DHT22;17990;49.548;9.730;2022-11-20T08:07:47;4.00;99.90
16736;DHT22;17990;49.548;9.730;2022-11-20T08:10:15;4.10;99.90
16736;DHT22;17990;49.548;9.730;2022-11-20T08:12:46;4.10;99.90
16736;DHT22;17990;49.548;9.730;2022-11-20T08:15:31;4.10;99.90
16736;DHT22;17990;49.548;9.730;2022-11-20T08:18:01;4.20;99.90
16736;DHT22;17990;49.548;9.730;2022-11-20T08:20:29;4.20;99.90
16736;DHT22;17990;49.548;9.730;2022-11-20T08:22:59;4.20;99.90
16736;DHT22;17990;49.548;9.730;2022-11-20T08:25:27;4.10;99.90
16736;DHT22;17990;49.548;9.730;2022-11-20T08:27:57;3.90;99.90
16736;DHT22;17990;49.548;9.730;2022-11-20T08:30:25;4.00;99.90
16736;DHT22;17990;49.548;9.730;2022-11-20T08:32:52;4.10;99.90
16736;DHT22;17990;49.548;9.730;2022-11-20T08:35:20;4.10;99.90
16736;DHT22;17990;49.548;9.730;2022-11-20T08:37:48;4.10;99.90
16736;DHT22;17990;49.548;9.730;2022-11-20T08:40:15;4.10;99.90
16736;DHT22;17990;49.548;9.730;2022-11-20T08:42:49;4.10;99.90
16736;DHT22;17990;49.548;9.730;2022-11-20T08:45:18;4.10;99.90
16736;DHT22;17990;49.548;9.730;2022-11-20T08:47:46;4.10;99.90
16736;DHT22;17990;49.548;9.730;2022-11-20T08:50:14;4.00;99.90
16736;DHT22;17990;49.548;9.730;2022-11-20T08:52:43;4.00;99.90
16736;DHT22;17990;49.548;9.730;2022-11-20T08:55:11;4.00;99.90
16736;DHT22;17990;49.548;9.730;2022-11-20T08:57:38;4.00;99.90
16736;DHT22;17990;49.548;9.730;2022-11-20T09:00:06;4.00;99.90
16736;DHT22;17990;49.548;9.730;2022-11-20T09:02:35;4.10;99.90
16736;DHT22;17990;49.548;9.730;2022-11-20T09:05:02;4.20;99.90
16736;DHT22;17990;49.548;9.730;2022-11-20T09:07:29;4.20;99.90
16736;DHT22;17990;49.548;9.730;2022-11-20T09:09:58;4.20;99.90
16736;DHT22;17990;49.548;9.730;2022-11-20T09:12:25;4.20;99.90
16736;DHT22;17990;49.548;9.730;2022-11-20T09:14:52;4.20;99.90
16736;DHT22;17990;49.548;9.730;2022-11-20T09:17:18;4.30;99.90
16736;DHT22;17990;49.548;9.730;2022-11-20T09:19:46;4.30;99.90
16736;DHT22;17990;49.548;9.730;2022-11-20T09:22:13;4.30;99.90
16736;DHT22;17990;49.548;9.730;2022-11-20T09:24:40;4.30;99.90
16736;DHT22;17990;49.548;9.730;2022-11-20T09:27:09;4.30;99.90
16736;DHT22;17990;49.548;9.730;2022-11-20T09:29:36;4.30;99.90
16736;DHT22;17990;49.548;9.730;2022-11-20T09:32:03;4.30;99.90
16736;DHT22;17990;49.548;9.730;2022-11-20T09:34:31;4.30;99.90
16736;DHT22;17990;49.548;9.730;2022-11-20T09:36:58;4.20;99.90
16736;DHT22;17990;49.548;9.730;2022-11-20T09:39:25;4.20;99.90
16736;DHT22;17990;49.548;9.730;2022-11-20T09:42:05;4.30;99.90
16736;DHT22;17990;49.548;9.730;2022-11-20T09:45:01;4.30;99.90
16736;DHT22;17990;49.548;9.730;2022-11-20T09:47:37;4.30;99.90
16736;DHT22;17990;49.548;9.730;2022-11-20T09:50:23;4.20;99.90
16736;DHT22;17990;49.548;9.730;2022-11-20T09:53:04;4.10;99.90
16736;DHT22;17990;49.548;9.730;2022-11-20T09:55:37;4.10;99.90
16736;DHT22;17990;49.548;9.730;2022-11-20T09:58:11;4.00;99.90
16736;DHT22;17990;49.548;9.730;2022-11-20T10:00:41;3.90;99.90
16736;DHT22;17990;49.548;9.730;2022-11-20T10:03:14;3.70;99.90
16736;DHT22;17990;49.548;9.730;2022-11-20T10:05:45;3.50;99.90
16736;DHT22;17990;49.548;9.730;2022-11-20T10:08:17;3.60;99.90
16736;DHT22;17990;49.548;9.730;2022-11-20T10:11:00;3.70;99.90
16736;DHT22;17990;49.548;9.730;2022-11-20T10:13:40;3.80;99.90
16736;DHT22;17990;49.548;9.730;2022-11-20T10:16:19;4.00;99.90
16736;DHT22;17990;49.548;9.730;2022-11-20T10:19:02;4.00;99.90
16736;DHT22;17990;49.548;9.730;2022-11-20T10:21:42;4.20;99.90
16736;DHT22;17990;49.548;9.730;2022-11-20T10:24:27;4.40;99.90
16736;DHT22;17990;49.548;9.730;2022-11-20T10:27:38;4.60;99.90
16736;DHT22;17990;49.548;9.730;2022-11-20T10:30:13;4.90;99.90
16736;DHT22;17990;49.548;9.730;2022-11-20T10:32:43;4.90;99.90
16736;DHT22;17990;49.548;9.730;2022-11-20T10:35:20;4.80;99.90
16736;DHT22;17990;49.548;9.730;2022-11-20T10:37:51;4.70;99.90
16736;DHT22;17990;49.548;9.730;2022-11-20T10:40:29;4.60;99.90
16736;DHT22;17990;49.548;9.730;2022-11-20T10:43:01;4.50;99.90
16736;DHT22;17990;49.548;9.730;2022-11-20T10:45:40;4.40;99.90
16736;DHT22;17990;49.548;9.730;2022-11-20T10:48:16;4.40;99.90
16736;DHT22;17990;49.548;9.730;2022-11-20T10:50:57;4.60;99.90
16736;DHT22;17990;49.548;9.730;2022-11-20T10:53:58;4.80;99.90
16736;DHT22;17990;49.548;9.730;2022-11-20T10:56:38;4.90;99.90
16736;DHT22;17990;49.548;9.730;2022-11-20T10:59:32;5.00;99.90
16736;DHT22;17990;49.548;9.730;2022-11-20T11:02:17;5.10;99.90
16736;DHT22;17990;49.548;9.730;2022-11-20T11:04:46;5.30;99.90
16736;DHT22;17990;49.548;9.730;2022-11-20T11:07:17;5.40;99.90
16736;DHT22;17990;49.548;9.730;2022-11-20T11:09:48;5.50;99.90
16736;DHT22;17990;49.548;9.730;2022-11-20T11:12:16;5.50;99.90
16736;DHT22;17990;49.548;9.730;2022-11-20T11:14:48;5.50;99.90
16736;DHT22;17990;49.548;9.730;2022-11-20T11:17:26;5.40;99.90
16736;DHT22;17990;49.548;9.730;2022-11-20T11:20:03;5.40;99.90
16736;DHT22;17990;49.548;9.730;2022-11-20T11:22:33;5.20;99.90
16736;DHT22;17990;49.548;9.730;2022-11-20T11:25:01;5.10;99.90
16736;DHT22;17990;49.548;9.730;2022-11-20T11:27:28;5.10;99.90
16736;DHT22;17990;49.548;9.730;2022-11-20T11:32:41;5.00;99.90
16736;DHT22;17990;49.548;9.730;2022-11-20T11:35:23;5.00;99.90
16736;DHT22;17990;49.548;9.730;2022-11-20T11:37:52;5.10;99.90
16736;DHT22;17990;49.548;9.730;2022-11-20T11:40:22;5.20;99.90
16736;DHT22;17990;49.548;9.730;2022-11-20T11:42:55;5.20;99.90
16736;DHT22;17990;49.548;9.730;2022-11-20T11:45:24;5.30;99.90
16736;DHT22;17990;49.548;9.730;2022-11-20T11:47:54;5.20;99.90
16736;DHT22;17990;49.548;9.730;2022-11-20T11:50:24;5.30;99.90
16736;DHT22;17990;49.548;9.730;2022-11-20T11:53:05;5.30;99.90
16736;DHT22;17990;49.548;9.730;2022-11-20T11:55:40;5.30;99.90
16736;DHT22;17990;49.548;9.730;2022-11-20T11:58:32;5.20;99.90
16736;DHT22;17990;49.548;9.730;2022-11-20T12:01:12;5.20;99.90
16736;DHT22;17990;49.548;9.730;2022-11-20T12:03:58;5.40;99.90
16736;DHT22;17990;49.548;9.730;2022-11-20T12:06:29;5.50;99.90
16736;DHT22;17990;49.548;9.730;2022-11-20T12:09:01;5.60;99.90
16736;DHT22;17990;49.548;9.730;2022-11-20T12:11:33;5.50;99.90
16736;DHT22;17990;49.548;9.730;2022-11-20T12:14:09;5.50;99.90
16736;DHT22;17990;49.548;9.730;2022-11-20T12:16:40;5.40;99.90
16736;DHT22;17990;49.548;9.730;2022-11-20T12:19:11;5.40;99.90
16736;DHT22;17990;49.548;9.730;2022-11-20T12:21:49;5.30;99.90
16736;DHT22;17990;49.548;9.730;2022-11-20T12:24:35;5.30;99.90
16736;DHT22;17990;49.548;9.730;2022-11-20T12:27:25;5.20;99.90
16736;DHT22;17990;49.548;9.730;2022-11-20T12:30:07;5.10;99.90
16736;DHT22;17990;49.548;9.730;2022-11-20T12:32:55;5.20;99.90
16736;DHT22;17990;49.548;9.730;2022-11-20T12:35:58;5.40;99.90
16736;DHT22;17990;49.548;9.730;2022-11-20T12:39:02;5.60;99.90
16736;DHT22;17990;49.548;9.730;2022-11-20T12:41:51;5.80;99.90
16736;DHT22;17990;49.548;9.730;2022-11-20T12:45:06;6.00;99.90
16736;DHT22;17990;49.548;9.730;2022-11-20T12:51:06;6.00;99.90
16736;DHT22;17990;49.548;9.730;2022-11-20T12:53:54;6.00;99.90
16736;DHT22;17990;49.548;9.730;2022-11-20T12:56:35;6.00;99.90
16736;DHT22;17990;49.548;9.730;2022-11-20T12:59:21;5.90;99.90
16736;DHT22;17990;49.548;9.730;2022-11-20T13:01:58;5.90;99.90
16736;DHT22;17990;49.548;9.730;2022-11-20T13:04:45;5.80;99.90
16736;DHT22;17990;49.548;9.730;2022-11-20T13:07:21;5.80;99.90
16736;DHT22;17990;49.548;9.730;2022-11-20T13:09:50;5.80;99.90
16736;DHT22;17990;49.548;9.730;2022-11-20T13:12:22;5.80;99.90
16736;DHT22;17990;49.548;9.730;2022-11-20T13:14:55;5.90;99.90
16736;DHT22;17990;49.548;9.730;2022-11-20T13:17:33;6.20;99.90
16736;DHT22;17990;49.548;9.730;2022-11-20T13:20:06;6.40;99.90
16736;DHT22;17990;49.548;9.730;2022-11-20T13:22:45;6.20;99.90
16736;DHT22;17990;49.548;9.730;2022-11-20T13:25:23;6.20;99.90
16736;DHT22;17990;49.548;9.730;2022-11-20T13:27:50;6.00;99.90
16736;DHT22;17990;49.548;9.730;2022-11-20T13:30:20;6.00;99.90
16736;DHT22;17990;49.548;9.730;2022-11-20T13:32:49;6.00;99.90
16736;DHT22;17990;49.548;9.730;2022-11-20T13:35:26;5.90;99.90
16736;DHT22;17990;49.548;9.730;2022-11-20T13:38:05;6.00;99.90
16736;DHT22;17990;49.548;9.730;2022-11-20T13:40:36;6.20;99.90
16736;DHT22;17990;49.548;9.730;2022-11-20T13:43:21;6.20;99.90
16736;DHT22;17990;49.548;9.730;2022-11-20T13:45:57;6.20;99.90
16736;DHT22;17990;49.548;9.730;2022-11-20T13:48:29;6.20;99.90
16736;DHT22;17990;49.548;9.730;2022-11-20T13:51:10;6.20;99.90
16736;DHT22;17990;49.548;9.730;2022-11-20T13:54:10;6.10;99.90
16736;DHT22;17990;49.548;9.730;2022-11-20T13:56:59;6.20;99.90
16736;DHT22;17990;49.548;9.730;2022-11-20T13:59:40;6.10;99.90
16736;DHT22;17990;49.548;9.730;2022-11-20T14:02:15;6.10;99.90
16736;DHT22;17990;49.548;9.730;2022-11-20T14:04:45;6.10;99.90
16736;DHT22;17990;49.548;9.730;2022-11-20T14:07:14;6.20;99.90
16736;DHT22;17990;49.548;9.730;2022-11-20T14:09:51;6.30;99.90
16736;DHT22;17990;49.548;9.730;2022-11-20T14:12:20;6.30;99.90
16736;DHT22;17990;49.548;9.730;2022-11-20T14:14:50;6.30;99.90
16736;DHT22;17990;49.548;9.730;2022-11-20T14:17:20;6.30;99.90
16736;DHT22;17990;49.548;9.730;2022-11-20T14:19:50;6.10;99.90
16736;DHT22;17990;49.548;9.730;2022-11-20T14:22:20;5.90;99.90
16736;DHT22;17990;49.548;9.730;2022-11-20T14:25:00;6.00;99.90
16736;DHT22;17990;49.548;9.730;2022-11-20T14:27:29;6.00;99.90
16736;DHT22;17990;49.548;9.730;2022-11-20T14:30:01;6.00;99.90
16736;DHT22;17990;49.548;9.730;2022-11-20T14:32:29;6.00;99.90
16736;DHT22;17990;49.548;9.730;2022-11-20T14:35:02;6.10;99.90
16736;DHT22;17990;49.548;9.730;2022-11-20T14:37:38;6.10;99.90
16736;DHT22;17990;49.548;9.730;2022-11-20T14:40:26;6.10;99.90
16736;DHT22;17990;49.548;9.730;2022-11-20T14:42:55;6.10;99.90
16736;DHT22;17990;49.548;9.730;2022-11-20T14:45:22;6.10;99.90
16736;DHT22;17990;49.548;9.730;2022-11-20T14:47:51;6.10;99.90
16736;DHT22;17990;49.548;9.730;2022-11-20T14:50:21;6.10;99.90
16736;DHT22;17990;49.548;9.730;2022-11-20T14:52:50;6.00;99.90
16736;DHT22;17990;49.548;9.730;2022-11-20T14:55:30;6.00;99.90
16736;DHT22;17990;49.548;9.730;2022-11-20T14:57:59;6.00;99.90
16736;DHT22;17990;49.548;9.730;2022-11-20T15:00:28;6.00;99.90
16736;DHT22;17990;49.548;9.730;2022-11-20T15:02:56;6.00;99.90
16736;DHT22;17990;49.548;9.730;2022-11-20T15:05:25;6.00;99.90
16736;DHT22;17990;49.548;9.730;2022-11-20T15:08:06;6.00;99.90
16736;DHT22;17990;49.548;9.730;2022-11-20T15:10:37;5.90;99.90
16736;DHT22;17990;49.548;9.730;2022-11-20T15:13:06;5.80;99.90
16736;DHT22;17990;49.548;9.730;2022-11-20T15:15:45;5.80;99.90
16736;DHT22;17990;49.548;9.730;2022-11-20T15:18:14;5.80;99.90
16736;DHT22;17990;49.548;9.730;2022-11-20T15:20:42;5.80;99.90
16736;DHT22;17990;49.548;9.730;2022-11-20T15:23:11;5.80;99.90
16736;DHT22;17990;49.548;9.730;2022-11-20T15:25:41;5.80;99.90
16736;DHT22;17990;49.548;9.730;2022-11-20T15:28:16;5.80;99.90
16736;DHT22;17990;49.548;9.730;2022-11-20T15:30:45;5.80;99.90
16736;DHT22;17990;49.548;9.730;2022-11-20T15:33:13;5.70;99.90
16736;DHT22;17990;49.548;9.730;2022-11-20T15:35:40;5.60;99.90
16736;DHT22;17990;49.548;9.730;2022-11-20T15:38:07;5.50;99.90
16736;DHT22;17990;49.548;9.730;2022-11-20T15:40:34;5.30;99.90
16736;DHT22;17990;49.548;9.730;2022-11-20T15:43:03;5.30;99.90
16736;DHT22;17990;49.548;9.730;2022-11-20T15:45:35;5.30;99.90
16736;DHT22;17990;49.548;9.730;2022-11-20T15:48:08;5.30;99.90
16736;DHT22;17990;49.548;9.730;2022-11-20T15:50:38;5.40;99.90
16736;DHT22;17990;49.548;9.730;2022-11-20T15:53:07;5.30;99.90
16736;DHT22;17990;49.548;9.730;2022-11-20T15:55:34;5.30;99.90
16736;DHT22;17990;49.548;9.730;2022-11-20T15:58:03;5.20;99.90
16736;DHT22;17990;49.548;9.730;2022-11-20T16:00:30;5.10;99.90
16736;DHT22;17990;49.548;9.730;2022-11-20T16:02:57;5.00;99.90
16736;DHT22;17990;49.548;9.730;2022-11-20T16:05:24;5.00;99.90
16736;DHT22;17990;49.548;9.730;2022-11-20T16:07:54;4.90;99.90
16736;DHT22;17990;49.548;9.730;2022-11-20T16:10:21;4.90;99.90
16736;DHT22;17990;49.548;9.730;2022-11-20T16:12:48;4.90;99.90
16736;DHT22;17990;49.548;9.730;2022-11-20T16:15:34;4.90;99.90
16736;DHT22;17990;49.548;9.730;2022-11-20T16:18:15;4.90;99.90